Airfield :
LOGIN :

Register | Disclaimer

   EN    FR    IT 

 










Legend :    VFR   Marginal VFR   IFR   Intensive IFR   Very Intensive IFR
Visi :
Ceiling :
>= 8 km
>= 3000ft
5 to 8 km
1000 to 3000 ft
1500m to 5 km
500 to 1000 ft
800 to 1500m
200 to 500 ft
< 800m
< 200 ft
Symbols :   Thunderstorms  Fog  Heavy snow  Heavy precipitations  Wind > 20 kt
SIGMETs :     Misc.  Thunderstorms  Icing  Turbulence  Mountain Waves  Volcanic Ashes






- Airport Elevation : 755 ft
- IATA code : DRS


EDDC - Dresden Klotzsche

CURRENT METAR :
  • 211020Z AUTO VRB05KT CAVOK 29/16 Q1008 NOSIG

EXPIRED METARs :
  • 210950Z AUTO VRB05KT CAVOK 29/16 Q1009 NOSIG
  • 210920Z AUTO VRB04G15KT CAVOK 29/16 Q1009 NOSIG
  • 210850Z AUTO 09004KT 020V150 CAVOK 29/17 Q1009 NOSIG
  • 210820Z AUTO 13003KT 050V220 CAVOK 29/17 Q1009 NOSIG
  • 210750Z AUTO VRB02KT CAVOK 28/16 Q1009 NOSIG
  • 210720Z AUTO 10003KT 040V140 CAVOK 26/15 Q1009 NOSIG
  • 210650Z AUTO 14005KT 100V170 CAVOK 25/14 Q1009 NOSIG
  • 210620Z AUTO 15004KT 080V220 CAVOK 24/14 Q1009 NOSIG
  • 210550Z AUTO 14004KT 110V180 CAVOK 22/14 Q1009 NOSIG

TAF TAF EDDC
Valid from the 21 at 06:00 until the 22 at 06:00 UTC


210500Z 2106/2206 16005KT CAVOK
PROB30
TEMPO 2113/2119 24015G30KT 4000 TSRA BKN040CB
BECMG 2121/2124 23005KT
TEMPO 2201/2205 4000 TSRA BKN010 BKN015CB



MET'MAP, your aeronautical weather chart ! - Copyright ORBIFLY December 2007 - Disclaimer

ORBIFLY MET'MAP TEAM :

Programming & Development : Alexandra Zaïnal
Original concept : Baudouin d'Aumeries
Technical & hardware support : Manuel Goepfert
Assistance : Marc-Olivier Méhu




SOURCES & CREDITS :

   NOAA